Time;durP1;ratioP1;P1;durP2;ratioP2;P2;SDS_P1;SDS_P2;PMS_P1;PMS_P2;Temp;Humidity;BMP_temperature;BMP_pressure;BME280_temperature;BME280_humidity;BME280_pressure;Samples;Min_cycle;Max_cycle;Signal;HPM_P1;HPM_P2
2022/01/02 00:02:00;;;;;;;0.00;0.00;;;;;;;1.32;71.43;99613.70;1741209;80;21401;-57
2022/01/02 00:04:29;;;;;;;0.10;0.00;;;;;;;1.28;71.25;99619.47;1741448;80;21420;-54
2022/01/02 00:06:59;;;;;;;0.10;0.00;;;;;;;1.26;70.50;99638.53;1738156;80;21139;-55
2022/01/02 00:09:32;;;;;;;0.00;0.00;;;;;;;1.25;70.67;99634.12;1754074;81;22355;-56
2022/01/02 00:12:11;;;;;;;0.10;0.00;;;;;;;1.25;70.63;99639.87;1751324;81;21511;-57
2022/01/02 00:14:46;;;;;;;0.00;0.00;;;;;;;1.25;70.40;99650.03;1771935;80;21049;-55
2022/01/02 00:17:12;;;;;;;0.00;0.00;;;;;;;1.26;70.46;99647.81;1737228;81;21085;-58
2022/01/02 00:19:44;;;;;;;0.00;0.00;;;;;;;1.26;70.23;99658.41;1753114;79;21124;-55
2022/01/02 00:22:15;;;;;;;0.10;0.00;;;;;;;1.26;70.39;99660.19;1750539;81;21037;-55
2022/01/02 00:24:35;;;;;;;0.20;0.03;;;;;;;1.25;70.73;99661.08;1749696;81;21040;-57
2022/01/02 00:27:02;;;;;;;0.30;0.10;;;;;;;1.28;71.00;99667.65;1725047;81;21029;-53
2022/01/02 00:29:28;;;;;;;0.30;0.10;;;;;;;1.31;71.16;99664.97;1753415;81;21120;-57
2022/01/02 00:31:55;;;;;;;0.10;0.00;;;;;;;1.33;71.40;99677.77;1755257;80;21758;-57
2022/01/02 00:34:22;;;;;;;0.27;0.10;;;;;;;1.37;71.60;99684.33;1753025;80;23094;-58
2022/01/02 00:36:49;;;;;;;0.10;0.00;;;;;;;1.39;71.95;99679.89;1755116;80;21496;-53
2022/01/02 00:39:17;;;;;;;1.27;0.10;;;;;;;1.41;72.34;99698.45;1756979;81;21056;-55
2022/01/02 00:41:52;;;;;;;0.00;0.00;;;;;;;1.41;73.04;99697.13;1750708;80;21009;-52
2022/01/02 00:44:43;;;;;;;0.10;0.00;;;;;;;1.39;73.39;99695.80;1752696;81;21581;-58
2022/01/02 00:47:39;;;;;;;0.20;0.00;;;;;;;1.39;73.95;99697.58;1752535;81;21093;-56
2022/01/02 00:50:12;;;;;;;0.10;0.00;;;;;;;1.38;74.28;99695.38;1756156;80;21118;-55
2022/01/02 00:52:44;;;;;;;0.10;0.10;;;;;;;1.38;74.48;99698.47;1742918;81;21435;-56
2022/01/02 00:55:22;;;;;;;0.10;0.00;;;;;;;1.36;73.74;99695.83;1743966;81;21084;-53
2022/01/02 00:57:58;;;;;;;0.10;0.00;;;;;;;1.28;70.66;99722.89;1739552;81;22182;-55
2022/01/02 01:00:26;;;;;;;0.03;0.00;;;;;;;1.22;70.24;99700.43;1742266;81;21085;-55
2022/01/02 01:02:57;;;;;;;0.10;0.00;;;;;;;1.20;69.81;99695.59;1741242;81;21010;-56
2022/01/02 01:05:31;;;;;;;0.00;0.00;;;;;;;1.20;69.77;99695.59;1743101;81;21551;-58
2022/01/02 01:08:07;;;;;;;0.07;0.00;;;;;;;1.22;69.98;99705.73;1741713;81;21065;-56
2022/01/02 01:10:40;;;;;;;0.07;0.00;;;;;;;1.24;70.21;99699.97;1740109;81;21785;-58
2022/01/02 01:13:08;;;;;;;0.10;0.00;;;;;;;1.26;70.37;99703.49;1742846;81;21434;-53
2022/01/02 01:15:37;;;;;;;0.00;0.00;;;;;;;1.28;70.65;99697.70;1744035;81;20954;-56
2022/01/02 01:18:05;;;;;;;0.20;0.00;;;;;;;1.31;70.84;99713.59;1747408;81;21896;-52
2022/01/02 01:20:36;;;;;;;0.20;0.00;;;;;;;1.33;70.98;99713.58;1746534;81;21424;-58
2022/01/02 01:23:03;;;;;;;0.40;0.10;;;;;;;1.32;70.73;99715.34;1742410;81;21367;-56
2022/01/02 01:25:29;;;;;;;0.10;0.00;;;;;;;1.31;70.74;99721.98;1744096;81;21081;-62
2022/01/02 01:27:56;;;;;;;0.07;0.00;;;;;;;1.29;70.47;99731.28;1742219;81;21478;-55
2022/01/02 01:30:25;;;;;;;0.03;0.00;;;;;;;1.27;70.08;99727.80;1741518;81;21538;-55
2022/01/02 01:32:53;;;;;;;0.00;0.00;;;;;;;1.26;69.31;99730.45;1740427;81;21041;-52
2022/01/02 01:35:21;;;;;;;0.00;0.00;;;;;;;1.23;68.33;99736.66;1737883;81;21144;-54
2022/01/02 01:37:49;;;;;;;0.10;0.00;;;;;;;1.19;67.10;99746.89;1738609;81;21680;-58
2022/01/02 01:40:16;;;;;;;0.20;0.10;;;;;;;1.16;66.76;99737.62;1714533;81;21350;-59
2022/01/02 01:42:55;;;;;;;0.20;0.07;;;;;;;1.14;65.13;99736.75;1741529;81;21468;-56
2022/01/02 01:47:54;;;;;;;0.20;0.00;;;;;;;1.11;64.18;99758.86;1741090;80;21143;-59
2022/01/02 01:50:25;;;;;;;0.20;0.10;;;;;;;1.10;63.65;99745.20;1742314;81;21419;-57
2022/01/02 01:52:52;;;;;;;1.57;0.00;;;;;;;1.11;62.97;99744.73;1740028;81;21570;-54
2022/01/02 01:55:18;;;;;;;0.10;0.00;;;;;;;1.09;62.98;99760.68;1739969;81;21062;-60
2022/01/02 01:57:46;;;;;;;0.07;0.00;;;;;;;1.08;63.04;99762.89;1739856;81;21583;-57
2022/01/02 02:00:16;;;;;;;0.00;0.00;;;;;;;1.09;63.34;99759.80;1738794;81;21598;-57
2022/01/02 02:02:47;;;;;;;0.20;0.00;;;;;;;1.08;63.54;99763.34;1742063;81;20966;-54
2022/01/02 02:05:14;;;;;;;0.23;0.03;;;;;;;1.08;63.38;99762.02;1743498;81;20930;-56
2022/01/02 02:07:43;;;;;;;0.07;0.00;;;;;;;1.05;63.11;99766.01;1742274;80;20985;-53
2022/01/02 02:10:17;;;;;;;0.07;0.03;;;;;;;1.00;62.73;99765.19;1742235;81;20938;-55
2022/01/02 02:12:47;;;;;;;0.10;0.00;;;;;;;0.94;62.64;99768.75;1742372;81;22033;-58
2022/01/02 02:15:15;;;;;;;0.00;0.00;;;;;;;0.92;63.09;99793.09;1742371;81;20897;-54
2022/01/02 02:17:46;;;;;;;0.00;0.00;;;;;;;0.91;63.42;99783.38;1742023;81;21006;-54
2022/01/02 02:20:17;;;;;;;0.03;0.00;;;;;;;0.92;63.16;99798.84;1745325;81;20930;-52
2022/01/02 02:22:46;;;;;;;0.10;0.00;;;;;;;0.90;61.99;99797.96;1742407;81;21030;-56
2022/01/02 02:25:17;;;;;;;0.00;0.00;;;;;;;0.88;61.58;99798.41;1740964;81;21768;-57
2022/01/02 02:27:58;;;;;;;3.40;0.00;;;;;;;0.85;61.07;99809.06;1743011;81;20989;-57
2022/01/02 02:30:26;;;;;;;0.10;0.00;;;;;;;0.82;60.73;99806.42;1744956;81;20982;-57
2022/01/02 02:32:54;;;;;;;0.10;0.00;;;;;;;0.79;60.02;99807.77;1742864;81;20891;-57
2022/01/02 02:38:01;;;;;;;0.00;0.00;;;;;;;0.76;60.07;99802.06;1847250;75;27895;-56
2022/01/02 02:40:29;;;;;;;0.00;0.00;;;;;;;0.71;60.16;99806.06;1807583;77;20911;-58
2022/01/02 02:43:07;;;;;;;0.00;0.00;;;;;;;0.68;60.34;99810.04;1808425;77;21464;-59
2022/01/02 02:49:25;;;;;;;0.07;0.07;;;;;;;0.63;60.04;99819.81;1765152;77;20980;-57
2022/01/02 02:51:06;;;;;;;0.00;0.00;;;;;;;0.58;60.38;99814.12;1786207;77;21033;-59
2022/01/02 02:53:35;;;;;;;0.10;0.00;;;;;;;0.53;60.40;99803.54;1809119;77;21176;-55
2022/01/02 02:56:03;;;;;;;0.17;0.17;;;;;;;0.50;60.54;99816.83;1806862;77;21084;-56
2022/01/02 03:01:00;;;;;;;0.10;0.00;;;;;;;0.49;60.66;99828.30;1785660;78;21040;-59
2022/01/02 03:03:26;;;;;;;0.20;0.00;;;;;;;0.47;60.89;99828.75;1788006;78;21075;-59
2022/01/02 03:06:59;;;;;;;0.70;0.00;;;;;;;0.48;60.99;99833.61;1827901;76;26377;-60
2022/01/02 03:09:38;;;;;;;0.10;0.00;;;;;;;0.43;60.96;99839.36;1798662;77;20922;-58
2022/01/02 03:11:54;;;;;;;0.10;0.03;;;;;;;0.41;60.85;99841.16;1801826;77;21101;-57
2022/01/02 03:14:21;;;;;;;0.10;0.00;;;;;;;0.35;60.57;99860.59;1802528;77;21101;-57
2022/01/02 03:16:49;;;;;;;0.10;0.10;;;;;;;0.30;60.85;99843.86;1799358;77;21020;-56
2022/01/02 03:19:16;;;;;;;0.10;0.00;;;;;;;0.27;60.87;99849.16;1800510;77;21002;-56
2022/01/02 03:21:42;;;;;;;0.30;0.07;;;;;;;0.22;60.81;99850.97;1801030;78;21040;-56
2022/01/02 03:24:09;;;;;;;1.07;0.10;;;;;;;0.19;60.80;99870.38;1798821;78;21134;-61
2022/01/02 03:26:35;;;;;;;0.00;0.00;;;;;;;0.16;60.75;99855.86;1802361;78;21057;-60
2022/01/02 03:29:02;;;;;;;0.00;0.00;;;;;;;0.13;60.42;99857.19;1802751;77;20937;-58
2022/01/02 03:31:29;;;;;;;0.20;0.00;;;;;;;0.09;60.54;99873.95;1800290;78;21060;-60
2022/01/02 03:33:56;;;;;;;0.77;0.03;;;;;;;0.06;60.40;99875.75;1800996;77;21032;-58
2022/01/02 03:36:22;;;;;;;0.10;0.00;;;;;;;0.02;60.60;99882.80;1766904;80;21092;-57
2022/01/02 03:38:49;;;;;;;0.10;0.10;;;;;;;-0.01;60.54;99882.84;1738360;81;21097;-58
2022/01/02 03:41:15;;;;;;;0.00;0.00;;;;;;;-0.04;60.56;99890.34;1738251;80;21049;-58
2022/01/02 03:43:42;;;;;;;0.00;0.00;;;;;;;-0.07;60.91;99891.66;1764988;80;21093;-60
2022/01/02 03:46:09;;;;;;;0.20;0.10;;;;;;;-0.09;60.86;99887.28;1760793;80;21159;-60
2022/01/02 03:48:36;;;;;;;0.10;0.00;;;;;;;-0.11;61.10;99893.01;1764042;80;21122;-57
2022/01/02 03:51:03;;;;;;;0.53;0.03;;;;;;;-0.13;61.28;99906.23;1763735;80;21080;-61
2022/01/02 03:53:30;;;;;;;0.10;0.00;;;;;;;-0.17;61.29;99911.08;1761968;79;21077;-57
2022/01/02 03:55:57;;;;;;;0.00;0.00;;;;;;;-0.21;61.61;99913.76;1762018;79;21135;-58
2022/01/02 03:58:25;;;;;;;0.20;0.03;;;;;;;-0.26;61.77;99925.69;1732540;81;21057;-56
2022/01/02 04:00:51;;;;;;;0.10;0.00;;;;;;;-0.27;61.95;99933.63;1733506;81;21230;-57
2022/01/02 04:03:19;;;;;;;0.10;0.00;;;;;;;-0.28;61.99;99935.82;1732008;81;21056;-60
2022/01/02 04:05:46;;;;;;;0.10;0.10;;;;;;;-0.30;62.00;99934.50;1731587;81;21033;-57
2022/01/02 04:08:13;;;;;;;0.00;0.00;;;;;;;-0.32;61.91;99937.58;1723629;81;21068;-55
2022/01/02 04:10:39;;;;;;;0.10;0.00;;;;;;;-0.33;61.82;99948.16;1722895;81;21064;-56
2022/01/02 04:13:06;;;;;;;0.30;0.10;;;;;;;-0.37;61.71;99953.91;1712571;82;21141;-57
2022/01/02 04:15:33;;;;;;;0.10;0.00;;;;;;;-0.39;61.45;99960.95;1706885;83;20992;-56
2022/01/02 04:18:01;;;;;;;0.10;0.00;;;;;;;-0.46;61.10;99954.80;1735068;81;21080;-59
2022/01/02 04:20:27;;;;;;;0.20;0.10;;;;;;;-0.53;60.98;99950.41;1711037;82;21042;-57
2022/01/02 04:22:53;;;;;;;0.00;0.00;;;;;;;-0.57;61.35;99972.42;1726655;81;21132;-58
2022/01/02 04:25:20;;;;;;;0.07;0.00;;;;;;;-0.61;61.53;99965.39;1698563;82;21172;-57
2022/01/02 04:27:46;;;;;;;0.00;0.00;;;;;;;-0.64;61.69;99965.38;1712350;83;21110;-56
2022/01/02 04:30:13;;;;;;;0.10;0.10;;;;;;;-0.66;61.94;99960.52;1701584;82;21065;-55
2022/01/02 04:32:40;;;;;;;0.20;0.10;;;;;;;-0.68;61.97;99961.42;1734681;81;21462;-58
2022/01/02 04:35:08;;;;;;;0.10;0.00;;;;;;;-0.71;62.13;99977.27;1732638;81;21347;-59
2022/01/02 04:37:35;;;;;;;0.17;0.00;;;;;;;-0.72;62.35;99978.15;1721986;82;22250;-55
2022/01/02 04:40:02;;;;;;;0.20;0.00;;;;;;;-0.74;62.37;99976.82;1710301;82;21352;-55
2022/01/02 04:42:30;;;;;;;0.20;0.10;;;;;;;-0.73;62.55;99988.28;1706958;83;21020;-56
2022/01/02 04:44:57;;;;;;;0.10;0.10;;;;;;;-0.76;62.62;99990.47;1729584;81;21441;-55
2022/01/02 04:47:23;;;;;;;0.13;0.10;;;;;;;-0.78;62.84;100007.67;1731452;80;21350;-57
2022/01/02 04:49:50;;;;;;;0.10;0.10;;;;;;;-0.78;62.60;100027.50;1725655;81;23164;-57
2022/01/02 04:52:16;;;;;;;2.10;0.20;;;;;;;-0.81;62.71;100019.98;1700789;83;21080;-56
2022/01/02 04:54:43;;;;;;;0.10;0.10;;;;;;;-0.81;62.73;100018.67;1700594;82;21096;-56
2022/01/02 04:57:11;;;;;;;0.10;0.10;;;;;;;-0.83;62.83;100018.66;1727947;81;21037;-56
2022/01/02 04:59:38;;;;;;;0.10;0.00;;;;;;;-0.83;62.66;100022.63;1730624;81;21054;-57
2022/01/02 05:02:05;;;;;;;0.00;0.00;;;;;;;-0.85;62.79;100020.41;1732259;81;21170;-56
2022/01/02 05:04:33;;;;;;;0.20;0.03;;;;;;;-0.88;62.42;100025.71;1735235;81;20954;-55
2022/01/02 05:06:59;;;;;;;0.10;0.10;;;;;;;-0.90;62.36;100029.22;1686050;82;21499;-55
2022/01/02 05:09:25;;;;;;;0.10;0.10;;;;;;;-0.93;61.56;100022.59;1703917;82;20886;-56
2022/01/02 05:11:52;;;;;;;0.20;0.10;;;;;;;-0.96;61.59;100016.00;1683609;84;20932;-56
2022/01/02 05:14:18;;;;;;;0.17;0.10;;;;;;;-0.98;61.35;100028.32;1685907;84;21542;-53
2022/01/02 05:16:45;;;;;;;0.20;0.00;;;;;;;-0.99;61.31;100035.36;1695731;83;20955;-55
2022/01/02 05:19:12;;;;;;;0.27;0.10;;;;;;;-1.01;61.38;100025.66;1694435;83;20938;-56
2022/01/02 05:21:39;;;;;;;0.47;0.10;;;;;;;-1.06;61.14;100040.63;1695855;83;20982;-54
2022/01/02 05:24:05;;;;;;;0.20;0.10;;;;;;;-1.13;61.13;100034.89;1697227;83;20903;-55
2022/01/02 05:26:32;;;;;;;0.50;0.20;;;;;;;-1.17;61.02;100033.98;1695414;83;21115;-54
2022/01/02 05:28:58;;;;;;;0.40;0.20;;;;;;;-1.21;61.20;100041.03;1715923;81;20945;-53
2022/01/02 05:31:25;;;;;;;0.20;0.10;;;;;;;-1.26;60.93;100054.64;1706103;82;20953;-54
2022/01/02 05:33:51;;;;;;;0.60;0.27;;;;;;;-1.30;61.33;100033.08;1708349;82;20977;-55
2022/01/02 05:36:17;;;;;;;0.20;0.10;;;;;;;-1.30;61.27;100048.92;1707990;83;20982;-53
2022/01/02 05:38:44;;;;;;;0.50;0.10;;;;;;;-1.33;61.09;100055.94;1708207;82;21436;-54
2022/01/02 05:41:12;;;;;;;0.20;0.10;;;;;;;-1.38;61.21;100057.25;1705063;82;21120;-54
2022/01/02 05:43:39;;;;;;;0.37;0.20;;;;;;;-1.40;61.27;100047.55;1703908;82;21705;-54
2022/01/02 05:46:06;;;;;;;0.30;0.10;;;;;;;-1.43;61.18;100064.69;1704851;83;22301;-54
2022/01/02 05:48:34;;;;;;;0.30;0.10;;;;;;;-1.46;61.23;100061.61;1705954;83;21346;-53
2022/01/02 05:51:01;;;;;;;0.30;0.10;;;;;;;-1.48;61.31;100053.23;1700979;82;22645;-53
2022/01/02 05:53:29;;;;;;;0.10;0.10;;;;;;;-1.49;61.26;100062.02;1712625;81;20911;-53
2022/01/02 05:55:56;;;;;;;0.30;0.10;;;;;;;-1.50;60.99;100066.86;1686029;81;21045;-53
2022/01/02 05:58:24;;;;;;;0.70;0.10;;;;;;;-1.52;61.02;100078.72;1716833;82;20970;-52
2022/01/02 06:00:51;;;;;;;0.20;0.10;;;;;;;-1.55;60.40;100080.05;1717854;81;21363;-53
2022/01/02 06:03:17;;;;;;;0.20;0.10;;;;;;;-1.60;60.13;100085.72;1679342;84;21545;-53
2022/01/02 06:05:44;;;;;;;0.10;0.10;;;;;;;-1.63;60.42;100102.44;1669527;82;20934;-52
2022/01/02 06:08:11;;;;;;;0.10;0.10;;;;;;;-1.62;60.57;100091.02;1712908;82;20935;-52
2022/01/02 06:10:39;;;;;;;0.20;0.10;;;;;;;-1.62;60.71;100094.97;1686587;83;21242;-52
2022/01/02 06:13:06;;;;;;;0.20;0.10;;;;;;;-1.60;60.71;100092.31;1702701;82;21097;-52
2022/01/02 06:15:33;;;;;;;0.10;0.00;;;;;;;-1.58;60.77;100095.42;1705507;82;21110;-52
2022/01/02 06:18:01;;;;;;;1.57;0.10;;;;;;;-1.57;60.69;100099.83;1702618;82;21383;-52
2022/01/02 06:20:28;;;;;;;0.20;0.10;;;;;;;-1.54;60.76;100098.54;1676739;84;21037;-51
2022/01/02 06:22:54;;;;;;;0.20;0.10;;;;;;;-1.57;60.83;100097.63;1704440;82;21085;-50
2022/01/02 06:25:21;;;;;;;0.40;0.20;;;;;;;-1.60;61.01;100092.31;1703139;84;21152;-51
2022/01/02 06:27:48;;;;;;;0.30;0.10;;;;;;;-1.60;60.96;100105.52;1704614;84;22624;-51
2022/01/02 06:30:15;;;;;;;0.10;0.10;;;;;;;-1.61;61.17;100100.67;1702048;82;21703;-52
2022/01/02 06:32:42;;;;;;;0.10;0.10;;;;;;;-1.58;61.27;100099.81;1705670;82;21056;-51
2022/01/02 06:35:09;;;;;;;0.20;0.10;;;;;;;-1.59;61.19;100092.77;1704539;83;21378;-52
2022/01/02 06:37:37;;;;;;;0.20;0.10;;;;;;;-1.58;61.10;100091.89;1703687;82;21089;-52
2022/01/02 06:40:05;;;;;;;0.20;0.10;;;;;;;-1.61;61.19;100108.59;1702716;82;22804;-52
2022/01/02 06:42:34;;;;;;;0.30;0.10;;;;;;;-1.61;61.23;100100.67;1702064;82;21088;-51
2022/01/02 06:45:01;;;;;;;0.30;0.10;;;;;;;-1.59;61.18;100100.25;1706791;83;21586;-51
2022/01/02 06:47:28;;;;;;;0.80;0.10;;;;;;;-1.55;61.14;100101.16;1704058;83;21090;-51
2022/01/02 06:49:55;;;;;;;0.30;0.10;;;;;;;-1.55;61.13;100104.69;1721907;82;21131;-51
2022/01/02 06:52:21;;;;;;;0.10;0.00;;;;;;;-1.53;60.98;100116.55;1708039;82;21151;-51
2022/01/02 06:54:53;;;;;;;0.20;0.10;;;;;;;-1.52;61.18;100117.89;1712038;82;21100;-52
2022/01/02 06:57:17;;;;;;;0.10;0.00;;;;;;;-1.47;60.99;100111.33;1710447;82;21053;-52
2022/01/02 06:59:43;;;;;;;0.20;0.10;;;;;;;-1.47;60.98;100122.33;1707999;82;21171;-52
2022/01/02 07:02:10;;;;;;;0.20;0.10;;;;;;;-1.48;61.04;100116.59;1663258;84;21144;-53
2022/01/02 07:04:37;;;;;;;0.27;0.10;;;;;;;-1.46;60.95;100128.06;1710569;82;21084;-53
2022/01/02 07:07:04;;;;;;;0.20;0.10;;;;;;;-1.47;60.79;100128.93;1712853;81;21054;-52
2022/01/02 07:09:31;;;;;;;0.20;0.10;;;;;;;-1.48;60.93;100131.12;1718584;81;21090;-52
2022/01/02 07:12:01;;;;;;;0.10;0.00;;;;;;;-1.47;60.86;100133.77;1746607;81;21414;-52
2022/01/02 07:14:27;;;;;;;0.10;0.10;;;;;;;-1.48;60.76;100129.36;1738873;81;21239;-52
2022/01/02 07:16:55;;;;;;;0.13;0.10;;;;;;;-1.50;60.98;100126.25;1744062;81;21212;-53
2022/01/02 07:19:21;;;;;;;0.10;0.10;;;;;;;-1.50;60.63;100140.78;1750240;80;21676;-53
2022/01/02 07:21:49;;;;;;;0.23;0.10;;;;;;;-1.53;60.71;100133.27;1717453;81;21034;-53
2022/01/02 07:24:16;;;;;;;0.20;0.10;;;;;;;-1.51;60.72;100134.61;1742173;81;21096;-53
2022/01/02 07:26:42;;;;;;;0.40;0.20;;;;;;;-1.49;60.46;100141.23;1727753;82;22202;-52
2022/01/02 07:29:09;;;;;;;0.40;0.10;;;;;;;-1.49;60.26;100139.47;1726411;81;21553;-52
2022/01/02 07:31:36;;;;;;;0.40;0.13;;;;;;;-1.47;60.02;100139.05;1748911;81;21493;-53
2022/01/02 07:34:04;;;;;;;0.20;0.10;;;;;;;-1.45;59.81;100146.98;1749753;80;20977;-54
2022/01/02 07:36:31;;;;;;;0.27;0.10;;;;;;;-1.46;59.78;100149.18;1717560;81;21115;-52
2022/01/02 07:38:57;;;;;;;0.20;0.10;;;;;;;-1.43;59.81;100157.09;1718520;82;21100;-53
2022/01/02 07:43:47;;;;;;;0.30;0.10;;;;;;;-1.33;59.43;100145.72;1852177;75;26621;-53
2022/01/02 07:46:13;;;;;;;0.20;0.10;;;;;;;-1.34;59.46;100150.55;1816327;77;21012;-53
2022/01/02 07:48:39;;;;;;;0.40;0.20;;;;;;;-1.30;59.06;100156.31;1815390;77;23368;-52
2022/01/02 07:51:05;;;;;;;0.93;0.13;;;;;;;-1.27;59.20;100160.27;1808502;77;22115;-52
2022/01/02 07:53:32;;;;;;;0.37;0.17;;;;;;;-1.22;59.07;100154.60;1819190;77;21319;-53
2022/01/02 07:55:59;;;;;;;0.87;0.20;;;;;;;-1.20;59.13;100153.74;1815382;77;21585;-52
2022/01/02 07:58:25;;;;;;;0.67;0.30;;;;;;;-1.16;58.33;100160.79;1795579;78;21443;-52
2022/01/02 08:00:51;;;;;;;0.40;0.30;;;;;;;-1.17;57.93;100162.98;1788577;79;21241;-52
2022/01/02 08:03:18;;;;;;;0.30;0.10;;;;;;;-1.21;57.49;100157.69;1791142;79;21033;-52
2022/01/02 08:05:44;;;;;;;0.50;0.20;;;;;;;-1.26;57.55;100157.65;1794559;79;21041;-52
2022/01/02 08:08:10;;;;;;;0.20;0.10;;;;;;;-1.25;57.61;100159.86;1792495;79;21088;-53
2022/01/02 08:10:39;;;;;;;0.13;0.00;;;;;;;-1.21;57.35;100153.30;1785246;78;21032;-52
2022/01/02 08:13:05;;;;;;;0.10;0.10;;;;;;;-1.15;57.01;100155.08;1786112;79;21443;-53
2022/01/02 08:15:32;;;;;;;0.40;0.20;;;;;;;-1.12;56.84;100169.63;1793792;79;21376;-53
2022/01/02 08:17:58;;;;;;;0.50;0.20;;;;;;;-1.12;56.22;100164.78;1793181;79;20889;-53
2022/01/02 08:20:27;;;;;;;0.30;0.13;;;;;;;-1.20;56.09;100163.42;1800961;79;21200;-51
2022/01/02 08:22:56;;;;;;;0.27;0.10;;;;;;;-1.20;56.20;100164.75;1796461;78;20874;-51
2022/01/02 08:25:24;;;;;;;0.30;0.10;;;;;;;-1.18;55.97;100161.21;1792880;79;21100;-51
2022/01/02 08:27:50;;;;;;;0.33;0.10;;;;;;;-1.14;55.58;100167.41;1794795;79;20961;-51
2022/01/02 08:30:16;;;;;;;0.40;0.10;;;;;;;-1.10;55.17;100151.12;1794709;78;20937;-51
2022/01/02 08:32:43;;;;;;;0.40;0.10;;;;;;;-1.08;54.62;100148.05;1792694;77;20898;-51
2022/01/02 08:35:11;;;;;;;1.03;0.10;;;;;;;-1.09;53.95;100156.85;1796266;78;20899;-52
2022/01/02 08:37:39;;;;;;;1.07;0.10;;;;;;;-1.10;53.63;100157.72;1794661;79;21292;-52
2022/01/02 08:40:06;;;;;;;0.37;0.20;;;;;;;-1.15;53.01;100149.35;1799272;79;20855;-51
2022/01/02 08:42:34;;;;;;;0.50;0.30;;;;;;;-1.19;53.36;100140.06;1800958;78;20945;-53
2022/01/02 08:45:00;;;;;;;0.50;0.10;;;;;;;-1.20;52.41;100146.25;1807891;78;21025;-52
2022/01/02 08:47:26;;;;;;;0.83;0.10;;;;;;;-1.21;51.51;100139.20;1811100;78;21425;-52
2022/01/02 08:49:53;;;;;;;0.20;0.10;;;;;;;-1.25;51.25;100137.41;1811659;78;22213;-51
2022/01/02 08:52:19;;;;;;;0.40;0.20;;;;;;;-1.28;51.32;100138.30;1816131;78;21259;-52
2022/01/02 08:54:45;;;;;;;1.97;0.20;;;;;;;-1.28;51.33;100127.73;1806708;78;22479;-51
2022/01/02 08:57:12;;;;;;;0.20;0.10;;;;;;;-1.24;51.89;100132.57;1809719;76;21020;-52
2022/01/02 08:59:39;;;;;;;0.50;0.20;;;;;;;-1.17;51.05;100135.25;1808554;76;21146;-51
2022/01/02 09:02:05;;;;;;;0.40;0.10;;;;;;;-1.13;51.33;100124.27;1809010;78;22402;-51
2022/01/02 09:04:31;;;;;;;0.47;0.20;;;;;;;-1.11;51.26;100126.48;1804005;78;21060;-51
2022/01/02 09:06:58;;;;;;;0.20;0.10;;;;;;;-1.08;50.83;100115.91;1808560;78;21093;-51
2022/01/02 09:09:24;;;;;;;0.20;0.20;;;;;;;-1.03;51.14;100122.55;1809769;78;21052;-51
2022/01/02 09:11:51;;;;;;;0.33;0.20;;;;;;;-1.01;50.35;100125.63;1803215;78;21032;-51
2022/01/02 09:14:18;;;;;;;1.03;0.10;;;;;;;-1.02;50.04;100129.61;1811752;78;21506;-51
2022/01/02 09:16:45;;;;;;;1.00;0.20;;;;;;;-1.04;49.89;100129.59;1804007;78;21064;-52
2022/01/02 09:19:12;;;;;;;0.63;0.20;;;;;;;-1.00;49.66;100129.16;1807558;78;21377;-52
2022/01/02 09:21:39;;;;;;;0.40;0.20;;;;;;;-0.93;49.54;100132.26;1808831;78;20940;-52
2022/01/02 09:24:06;;;;;;;0.30;0.20;;;;;;;-0.91;49.40;100139.77;1810408;76;21032;-51
2022/01/02 09:26:34;;;;;;;0.30;0.20;;;;;;;-0.88;49.77;100141.11;1803965;78;21119;-51
2022/01/02 09:29:00;;;;;;;0.53;0.30;;;;;;;-0.83;49.70;100143.31;1810368;78;21036;-51
2022/01/02 09:31:26;;;;;;;0.50;0.20;;;;;;;-0.80;49.04;100133.65;1806072;78;21070;-51
2022/01/02 09:33:52;;;;;;;0.47;0.10;;;;;;;-0.74;49.22;100134.53;1812472;78;21072;-51
2022/01/02 09:36:19;;;;;;;1.47;0.20;;;;;;;-0.67;49.15;100131.03;1810556;78;21493;-51
2022/01/02 09:38:47;;;;;;;0.60;0.20;;;;;;;-0.59;49.13;100134.58;1805381;78;21266;-51
2022/01/02 09:41:15;;;;;;;0.30;0.20;;;;;;;-0.54;48.50;100132.41;1809984;78;21087;-51
2022/01/02 09:43:42;;;;;;;0.40;0.13;;;;;;;-0.50;47.98;100134.59;1805509;78;21064;-51
2022/01/02 09:46:08;;;;;;;0.60;0.10;;;;;;;-0.49;47.63;100143.86;1790018;78;21126;-51
2022/01/02 09:48:35;;;;;;;0.93;0.10;;;;;;;-0.48;47.43;100140.78;1787598;78;21580;-51
2022/01/02 09:51:01;;;;;;;0.30;0.13;;;;;;;-0.48;47.58;100136.81;1788683;78;21565;-51
2022/01/02 09:53:27;;;;;;;0.20;0.10;;;;;;;-0.43;47.71;100135.08;1791086;79;21614;-51
2022/01/02 09:55:54;;;;;;;0.70;0.20;;;;;;;-0.36;47.30;100138.61;1787156;79;21140;-51
2022/01/02 09:58:21;;;;;;;0.30;0.10;;;;;;;-0.30;46.92;100136.86;1792455;79;21608;-51
2022/01/02 10:00:48;;;;;;;0.33;0.10;;;;;;;-0.24;46.49;100142.14;1791278;79;21585;-52
2022/01/02 10:03:16;;;;;;;0.40;0.10;;;;;;;-0.23;45.66;100141.70;1788405;79;21772;-52
2022/01/02 10:05:56;;;;;;;0.43;0.20;;;;;;;-0.23;45.87;100132.45;1789806;79;21072;-51
2022/01/02 10:08:33;;;;;;;0.93;0.13;;;;;;;-0.23;44.91;100122.75;1791593;79;21509;-51
2022/01/02 10:11:09;;;;;;;0.77;0.20;;;;;;;-0.22;45.43;100117.02;1799526;79;21580;-51
2022/01/02 10:13:49;;;;;;;0.30;0.10;;;;;;;-0.18;45.29;100120.12;1787153;79;21648;-51
2022/01/02 10:16:32;;;;;;;0.30;0.10;;;;;;;-0.14;45.16;100104.23;1790249;78;21138;-52
2022/01/02 10:19:00;;;;;;;0.70;0.20;;;;;;;-0.10;44.54;100100.72;1795441;78;21120;-52
2022/01/02 10:21:38;;;;;;;0.47;0.20;;;;;;;-0.09;44.16;100105.58;1757739;79;22076;-51
2022/01/02 10:24:27;;;;;;;0.30;0.10;;;;;;;-0.08;44.18;100099.38;1788215;79;21080;-51
2022/01/02 10:27:19;;;;;;;0.80;0.30;;;;;;;-0.06;44.40;100113.05;1788560;79;22336;-51
2022/01/02 10:29:56;;;;;;;1.03;0.20;;;;;;;-0.02;44.35;100119.25;1785452;78;21545;-51
2022/01/02 10:32:38;;;;;;;0.60;0.20;;;;;;;0.03;44.23;100121.44;1786483;78;21100;-52
2022/01/02 10:35:22;;;;;;;0.97;0.20;;;;;;;0.06;43.91;100113.95;1793793;79;21036;-52
2022/01/02 10:37:56;;;;;;;0.90;0.20;;;;;;;0.08;43.60;100116.16;1791927;78;21085;-51
2022/01/02 10:40:34;;;;;;;;;;;;;;;0.06;43.50;100102.92;1792966;79;21320;-51
2022/01/02 10:43:06;;;;;;;0.67;0.20;;;;;;;0.06;43.83;100101.59;1791008;78;23306;-51
2022/01/02 10:45:38;;;;;;;0.40;0.20;;;;;;;0.10;44.09;100103.78;1809362;78;20878;-51
2022/01/02 10:48:07;;;;;;;0.60;0.20;;;;;;;0.15;44.11;100100.71;1803757;78;21400;-52
2022/01/02 10:50:34;;;;;;;0.50;0.20;;;;;;;0.17;43.42;100097.16;1806923;78;20949;-52
2022/01/02 10:53:16;;;;;;;0.40;0.20;;;;;;;0.18;43.44;100091.42;1810966;78;21460;-51
2022/01/02 10:55:45;;;;;;;0.40;0.20;;;;;;;0.17;43.18;100097.63;1803751;78;22200;-52
2022/01/02 10:58:12;;;;;;;0.80;0.20;;;;;;;0.21;42.99;100103.34;1805413;78;20890;-52
2022/01/02 11:00:39;;;;;;;0.70;0.20;;;;;;;0.19;42.33;100098.05;1802412;78;20932;-51
2022/01/02 11:03:06;;;;;;;0.93;0.30;;;;;;;0.18;41.81;100090.09;1806483;78;20903;-51
2022/01/02 11:05:35;;;;;;;0.70;0.20;;;;;;;0.16;41.57;100090.56;1806152;78;20874;-52
2022/01/02 11:08:03;;;;;;;0.37;0.20;;;;;;;0.16;40.99;100095.86;1748425;80;21088;-52
2022/01/02 11:10:33;;;;;;;1.63;0.20;;;;;;;0.12;41.13;100096.73;1762186;80;20910;-52
2022/01/02 11:13:00;;;;;;;0.63;0.23;;;;;;;0.10;41.07;100103.34;1763080;80;20953;-52
2022/01/02 11:15:27;;;;;;;1.33;0.20;;;;;;;0.10;41.13;100090.55;1761449;80;20894;-52
2022/01/02 11:17:54;;;;;;;0.40;0.20;;;;;;;0.10;40.95;100087.47;1761969;80;21593;-52
2022/01/02 11:20:25;;;;;;;0.87;0.23;;;;;;;0.10;40.74;100082.17;1764060;80;21403;-52
2022/01/02 11:23:20;;;;;;;0.50;0.23;;;;;;;0.11;40.45;100079.97;1760575;80;20963;-52
2022/01/02 11:26:27;;;;;;;0.40;0.20;;;;;;;0.13;40.74;100076.88;1761061;80;20874;-52
2022/01/02 11:28:56;;;;;;;0.43;0.20;;;;;;;0.18;40.46;100087.02;1761690;80;21279;-52
2022/01/02 11:31:34;;;;;;;0.70;0.30;;;;;;;0.21;40.92;100086.14;1765039;80;20942;-53
2022/01/02 11:34:02;;;;;;;1.37;0.77;;;;;;;0.24;41.35;100087.03;1743530;80;21100;-52
2022/01/02 11:36:34;;;;;;;0.80;0.37;;;;;;;0.28;40.92;100078.18;1744694;80;20914;-53
2022/01/02 11:39:07;;;;;;;1.53;0.20;;;;;;;0.30;41.14;100073.77;1766815;78;20953;-53
2022/01/02 11:41:50;;;;;;;0.60;0.23;;;;;;;0.31;40.98;100062.30;1762607;80;20945;-53
2022/01/02 11:44:18;;;;;;;3.60;0.30;;;;;;;0.28;41.40;100055.67;1765414;80;21051;-52
2022/01/02 11:46:55;;;;;;;0.50;0.30;;;;;;;0.28;41.89;100060.09;1767145;80;22603;-53
2022/01/02 11:49:29;;;;;;;1.23;0.30;;;;;;;0.30;42.33;100063.62;1769090;80;21052;-52
2022/01/02 11:52:02;;;;;;;0.45;0.30;;;;;;;0.29;42.58;100063.17;1760760;80;21131;-52
2022/01/02 11:54:40;;;;;;;0.70;0.20;;;;;;;0.27;42.77;100061.84;1771028;80;21282;-52